Time;durP1;ratioP1;P1;durP2;ratioP2;P2;SDS_P1;SDS_P2;PMS_P1;PMS_P2;Temp;Humidity;BMP_temperature;BMP_pressure;BME280_temperature;BME280_humidity;BME280_pressure;Samples;Min_cycle;Max_cycle;Signal;HPM_P1;HPM_P2
2022/03/02 00:01:55;;;;;;;16.88;11.65;;;;;;;0.04;67.57;93776.44;5048698;28;20554;-43
2022/03/02 00:04:21;;;;;;;17.30;11.57;;;;;;;0.11;67.46;93770.63;5048508;28;20024;-43
2022/03/02 00:06:46;;;;;;;17.50;11.57;;;;;;;-0.02;67.46;93755.41;5048568;28;20069;-43
2022/03/02 00:09:12;;;;;;;15.27;10.27;;;;;;;0.03;67.42;93772.97;5048678;28;20020;-42
2022/03/02 00:11:38;;;;;;;19.15;10.32;;;;;;;-0.18;67.60;93769.50;5048714;28;20478;-42
2022/03/02 00:14:05;;;;;;;13.45;8.82;;;;;;;-0.10;67.81;93765.16;5048190;28;20486;-42
2022/03/02 00:16:31;;;;;;;25.17;13.40;;;;;;;-0.13;67.86;93757.22;5048636;28;20017;-43
2022/03/02 00:18:57;;;;;;;53.15;26.13;;;;;;;-0.02;67.56;93762.78;5048410;28;20044;-42
2022/03/02 00:21:23;;;;;;;26.90;13.70;;;;;;;0.06;67.85;93753.03;5048467;28;20029;-42
2022/03/02 00:23:48;;;;;;;32.38;15.48;;;;;;;0.02;67.65;93759.88;5048550;28;20559;-42
2022/03/02 00:26:14;;;;;;;26.58;14.25;;;;;;;-0.04;67.69;93757.84;5046986;28;20060;-42
2022/03/02 00:28:39;;;;;;;27.02;13.02;;;;;;;0.03;67.48;93756.69;5048450;28;20111;-43
2022/03/02 00:31:05;;;;;;;25.58;13.90;;;;;;;-0.11;68.34;93752.78;5047965;28;20025;-42
2022/03/02 00:33:31;;;;;;;23.38;13.00;;;;;;;-0.11;67.89;93752.78;5048239;28;20021;-43
2022/03/02 00:35:56;;;;;;;22.63;12.73;;;;;;;-0.01;67.93;93746.03;5048247;28;20077;-42
2022/03/02 00:38:22;;;;;;;22.65;12.68;;;;;;;0.16;67.26;93743.53;5048221;28;20483;-42
2022/03/02 00:40:47;;;;;;;17.85;11.40;;;;;;;0.20;67.97;93741.38;5047570;27;20029;-42
2022/03/02 00:43:12;;;;;;;20.33;11.02;;;;;;;0.22;66.50;93738.19;5047791;28;20056;-43
2022/03/02 00:45:38;;;;;;;23.98;14.65;;;;;;;0.23;66.96;93726.09;5048241;28;20077;-42
2022/03/02 00:48:06;;;;;;;18.85;12.65;;;;;;;0.23;66.80;93732.28;5048003;28;20512;-43
2022/03/02 00:50:32;;;;;;;21.25;12.38;;;;;;;0.13;66.67;93725.47;5048090;28;20427;-43
2022/03/02 00:52:58;;;;;;;21.17;12.75;;;;;;;-0.08;67.49;93723.97;5047594;28;20033;-43
2022/03/02 00:55:24;;;;;;;17.90;11.15;;;;;;;0.03;67.01;93715.22;5047640;28;20024;-42
2022/03/02 00:57:49;;;;;;;23.90;13.27;;;;;;;-0.13;68.03;93708.38;5046928;28;20021;-42
2022/03/02 01:00:15;;;;;;;21.00;12.85;;;;;;;-0.36;68.56;93707.31;5047847;28;20021;-42
2022/03/02 01:02:41;;;;;;;19.38;12.73;;;;;;;-0.55;69.33;93691.75;5047532;28;20490;-42
2022/03/02 01:05:07;;;;;;;20.15;12.10;;;;;;;-0.31;69.33;93703.94;5047056;28;20066;-42
2022/03/02 01:07:33;;;;;;;27.63;14.68;;;;;;;-0.23;68.70;93698.84;5047876;28;20048;-42
2022/03/02 01:09:59;;;;;;;29.60;14.48;;;;;;;-0.14;69.53;93696.78;5047879;28;20085;-42
2022/03/02 01:12:25;;;;;;;25.80;14.25;;;;;;;-0.13;69.59;93692.81;5047773;28;20100;-43
2022/03/02 01:14:50;;;;;;;23.23;14.57;;;;;;;-0.10;69.30;93688.41;5047445;28;20537;-42
2022/03/02 01:17:16;;;;;;;19.95;12.20;;;;;;;-0.09;69.63;93681.78;5047366;28;20033;-42
2022/03/02 01:19:42;;;;;;;22.58;13.02;;;;;;;-0.25;68.72;93687.72;5047617;28;20059;-42
2022/03/02 01:22:07;;;;;;;23.38;12.40;;;;;;;-0.27;68.38;93690.16;5047626;28;20028;-42
2022/03/02 01:24:33;;;;;;;25.80;13.80;;;;;;;-0.33;68.72;93681.97;5047565;28;20021;-43
2022/03/02 01:27:01;;;;;;;21.08;11.30;;;;;;;-0.32;69.15;93679.97;5047282;28;20739;-43
2022/03/02 01:29:28;;;;;;;19.10;11.68;;;;;;;-0.22;68.39;93668.53;5047598;28;20017;-42
2022/03/02 01:31:54;;;;;;;18.55;11.82;;;;;;;-0.51;68.89;93676.78;5047162;28;20619;-42
2022/03/02 01:34:19;;;;;;;16.85;11.15;;;;;;;-0.56;69.17;93668.56;5047171;28;20116;-42
2022/03/02 01:36:45;;;;;;;15.88;10.68;;;;;;;-0.38;68.79;93668.31;5047042;28;20064;-42
2022/03/02 01:39:10;;;;;;;15.70;11.65;;;;;;;-0.50;69.04;93667.44;5046089;28;20021;-42
2022/03/02 01:41:37;;;;;;;16.55;10.77;;;;;;;-0.55;69.07;93670.81;5046679;28;20021;-42
2022/03/02 01:44:03;;;;;;;18.75;10.30;;;;;;;-0.49;69.09;93665.44;5046968;28;20665;-43
2022/03/02 01:46:30;;;;;;;19.98;10.95;;;;;;;-0.63;68.95;93637.19;5047351;28;20029;-42
2022/03/02 01:48:55;;;;;;;19.27;11.40;;;;;;;-0.44;68.79;93664.78;5046937;28;20025;-42
2022/03/02 01:51:21;;;;;;;16.40;10.75;;;;;;;-0.51;69.02;93657.78;5047262;28;20035;-42
2022/03/02 01:53:47;;;;;;;20.23;12.13;;;;;;;-0.60;69.48;93659.88;5047144;28;20097;-42
2022/03/02 01:56:12;;;;;;;16.27;9.90;;;;;;;-0.44;69.10;93660.13;5047215;28;20233;-42
2022/03/02 01:58:38;;;;;;;15.75;10.43;;;;;;;-0.73;68.84;93630.38;5046904;28;20532;-43
2022/03/02 02:01:04;;;;;;;17.02;10.30;;;;;;;-0.65;69.70;93655.84;5046641;28;20054;-42
2022/03/02 02:03:30;;;;;;;17.23;10.25;;;;;;;-0.57;70.06;93651.56;5047129;28;20021;-42
2022/03/02 02:05:56;;;;;;;12.95;9.20;;;;;;;-0.39;69.13;93650.56;5046728;28;20490;-42
2022/03/02 02:08:21;;;;;;;15.88;9.98;;;;;;;-0.47;69.07;93649.44;5046759;28;20124;-43
2022/03/02 02:10:48;;;;;;;21.73;12.10;;;;;;;-0.57;69.82;93642.66;5046996;28;20088;-43
2022/03/02 02:13:13;;;;;;;19.13;11.45;;;;;;;-0.48;70.24;93637.88;5046535;28;20498;-42
2022/03/02 02:15:39;;;;;;;15.10;10.88;;;;;;;-0.57;70.12;93634.53;5046732;28;20021;-42
2022/03/02 02:18:04;;;;;;;21.65;12.75;;;;;;;-0.71;70.23;93629.91;5085362;27;20563;-42
2022/03/02 02:20:37;;;;;;;17.42;11.63;;;;;;;-0.65;70.84;93631.47;5155411;27;20022;-42
2022/03/02 02:23:03;;;;;;;22.58;12.75;;;;;;;-0.67;70.61;93630.47;5155713;27;20410;-42
2022/03/02 02:25:28;;;;;;;24.02;13.30;;;;;;;-0.59;70.07;93629.59;5155343;27;20019;-42
2022/03/02 02:27:54;;;;;;;19.40;12.38;;;;;;;-0.60;70.04;93622.66;5155211;27;20051;-42
2022/03/02 02:30:21;;;;;;;18.25;11.80;;;;;;;-0.48;69.79;93623.56;5155529;27;20684;-43
2022/03/02 02:32:46;;;;;;;19.35;10.90;;;;;;;-0.44;70.44;93624.09;5155182;27;20491;-42
2022/03/02 02:35:12;;;;;;;19.60;11.13;;;;;;;-0.42;69.17;93616.25;5155094;27;20023;-42
2022/03/02 02:37:38;;;;;;;18.88;10.80;;;;;;;-0.42;68.72;93624.38;5155400;27;20022;-42
2022/03/02 02:40:07;;;;;;;16.52;9.13;;;;;;;-0.49;68.85;93622.06;5140029;27;20025;-43
2022/03/02 02:42:34;;;;;;;12.52;9.70;;;;;;;-0.58;69.70;93628.34;5050072;28;20375;-42
2022/03/02 02:45:00;;;;;;;15.88;9.73;;;;;;;-0.68;70.46;93628.94;5050028;28;20077;-43
2022/03/02 02:47:25;;;;;;;22.35;11.57;;;;;;;-0.74;71.28;93628.88;5049988;28;20021;-42
2022/03/02 02:49:51;;;;;;;20.45;11.00;;;;;;;-0.63;70.91;93622.88;5049125;28;20021;-43
2022/03/02 02:52:17;;;;;;;18.25;11.75;;;;;;;-0.60;70.29;93619.94;5049843;28;20463;-42
2022/03/02 02:54:42;;;;;;;16.13;11.18;;;;;;;-0.76;70.43;93626.63;5049884;28;20074;-42
2022/03/02 02:57:08;;;;;;;19.60;12.23;;;;;;;-0.78;70.99;93625.63;5049531;28;20406;-42
2022/03/02 02:59:34;;;;;;;28.65;15.82;;;;;;;-1.06;71.63;93627.19;5049530;28;20074;-42
2022/03/02 03:01:59;;;;;;;31.20;16.65;;;;;;;-0.90;71.88;93629.38;5049513;28;20028;-43
2022/03/02 03:04:25;;;;;;;26.20;14.13;;;;;;;-0.90;71.71;93626.66;5049449;28;20025;-42
2022/03/02 03:06:50;;;;;;;22.05;12.27;;;;;;;-0.97;71.45;93608.84;5049772;28;20024;-43
2022/03/02 03:09:16;;;;;;;20.63;12.05;;;;;;;-1.01;71.22;93599.41;5049697;28;20391;-43
2022/03/02 03:11:42;;;;;;;19.17;11.35;;;;;;;-1.11;72.03;93617.75;5049414;28;20035;-42
2022/03/02 03:14:12;;;;;;;21.17;11.65;;;;;;;-1.21;72.23;93619.06;5049209;28;20028;-42
2022/03/02 03:16:39;;;;;;;20.52;12.70;;;;;;;-1.07;71.78;93617.56;5049308;28;20490;-42
2022/03/02 03:19:04;;;;;;;29.75;17.05;;;;;;;-0.98;71.01;93620.16;5049107;28;20669;-42
2022/03/02 03:21:30;;;;;;;21.73;13.10;;;;;;;-0.85;71.20;93626.00;5049317;28;20017;-42
2022/03/02 03:23:55;;;;;;;25.38;14.25;;;;;;;-0.69;70.15;93628.19;5049491;28;20044;-42
2022/03/02 03:26:21;;;;;;;15.57;10.23;;;;;;;-0.71;70.10;93616.34;5049295;28;20025;-43
2022/03/02 03:28:47;;;;;;;20.75;11.45;;;;;;;-0.78;70.98;93625.63;5048703;28;20025;-42
2022/03/02 03:31:12;;;;;;;15.63;10.77;;;;;;;-0.57;70.12;93615.56;5049023;28;20021;-42
2022/03/02 03:33:38;;;;;;;17.23;10.38;;;;;;;-0.65;71.04;93625.31;5049270;28;20052;-42
2022/03/02 03:36:03;;;;;;;18.63;11.55;;;;;;;-0.69;70.82;93620.06;5048969;28;20495;-42
2022/03/02 03:38:29;;;;;;;21.70;12.75;;;;;;;-0.73;71.49;93619.53;5049192;28;20056;-43
2022/03/02 03:40:54;;;;;;;27.42;14.68;;;;;;;-0.67;71.00;93617.63;5048870;28;20058;-43
2022/03/02 03:43:20;;;;;;;29.42;14.43;;;;;;;-0.56;70.76;93615.06;5048906;28;20510;-43
2022/03/02 03:45:45;;;;;;;27.42;15.52;;;;;;;-0.58;70.57;93609.38;5047526;28;20017;-43
2022/03/02 03:48:11;;;;;;;26.27;15.20;;;;;;;-0.60;71.43;93611.81;5048809;28;20530;-43
2022/03/02 03:50:36;;;;;;;24.65;13.70;;;;;;;-0.64;72.39;93611.28;5048657;28;20017;-42
2022/03/02 03:53:02;;;;;;;16.08;10.45;;;;;;;-0.52;72.03;93606.75;5048584;28;20025;-42
2022/03/02 03:55:27;;;;;;;13.93;9.80;;;;;;;-0.53;71.90;93613.38;5048552;28;20025;-42
2022/03/02 03:57:53;;;;;;;15.25;9.32;;;;;;;-0.49;71.33;93617.38;5048935;28;20024;-42
2022/03/02 04:00:19;;;;;;;17.05;10.45;;;;;;;-0.58;71.81;93612.09;5048827;28;20482;-42
2022/03/02 04:02:45;;;;;;;15.98;9.82;;;;;;;-0.59;71.20;93604.44;5048829;28;20093;-42
2022/03/02 04:05:11;;;;;;;19.55;12.13;;;;;;;-0.58;70.65;93603.19;5048830;28;20021;-42
2022/03/02 04:07:38;;;;;;;20.30;13.05;;;;;;;-0.53;69.80;93608.72;5048753;28;20028;-42
2022/03/02 04:10:07;;;;;;;21.17;12.52;;;;;;;-0.50;69.83;93605.06;5048405;28;20032;-42
2022/03/02 04:12:33;;;;;;;21.67;13.95;;;;;;;-0.56;69.59;93585.25;5048442;28;20021;-42
2022/03/02 04:14:58;;;;;;;28.35;17.38;;;;;;;-0.33;69.08;93605.25;5048225;28;20161;-44
2022/03/02 04:17:24;;;;;;;22.80;12.98;;;;;;;-0.41;69.19;93601.47;5055784;27;20116;-42
2022/03/02 04:19:49;;;;;;;22.80;13.07;;;;;;;-0.47;68.95;93597.91;5153436;27;20415;-42
2022/03/02 04:22:15;;;;;;;30.92;15.73;;;;;;;-0.62;69.55;93600.69;5153001;27;20120;-43
2022/03/02 04:24:41;;;;;;;29.23;15.88;;;;;;;-0.54;69.61;93593.66;5152994;27;20023;-42
2022/03/02 04:27:07;;;;;;;22.35;13.65;;;;;;;-0.66;69.20;93578.47;5152904;27;20046;-43
2022/03/02 04:29:33;;;;;;;19.50;11.55;;;;;;;-0.48;68.96;93599.16;5152938;27;20537;-42
2022/03/02 04:31:58;;;;;;;15.75;10.82;;;;;;;-0.42;68.24;93594.53;5152829;27;20022;-43
2022/03/02 04:34:24;;;;;;;16.70;11.00;;;;;;;-0.46;68.85;93591.28;5153014;27;20018;-43
2022/03/02 04:36:49;;;;;;;17.90;11.60;;;;;;;-0.53;68.63;93592.44;5152772;27;20047;-42
2022/03/02 04:39:15;;;;;;;20.50;10.68;;;;;;;-0.48;69.16;93593.72;5152460;27;20023;-42
2022/03/02 04:41:40;;;;;;;23.38;12.00;;;;;;;-0.47;68.80;93595.97;5067398;27;20025;-42
2022/03/02 04:44:06;;;;;;;21.08;12.98;;;;;;;-0.47;68.01;93592.50;5048118;28;20025;-42
2022/03/02 04:46:31;;;;;;;32.70;18.23;;;;;;;-0.61;68.18;93596.03;5048270;28;20025;-42
2022/03/02 04:48:57;;;;;;;30.58;16.92;;;;;;;-0.53;68.35;93594.41;5047747;28;20541;-42
2022/03/02 04:51:22;;;;;;;28.55;15.88;;;;;;;-0.73;67.91;93581.56;5048182;28;20017;-43
2022/03/02 04:53:50;;;;;;;29.23;15.63;;;;;;;-0.59;68.57;93591.63;5047749;28;20581;-42
2022/03/02 04:56:16;;;;;;;22.30;14.77;;;;;;;-0.60;68.41;93597.50;5047692;28;20025;-42
2022/03/02 04:58:41;;;;;;;19.48;12.43;;;;;;;-0.58;68.51;93605.91;5047771;28;20318;-43
2022/03/02 05:01:07;;;;;;;21.42;14.10;;;;;;;-0.60;68.26;93600.22;5047277;28;20025;-42
2022/03/02 05:03:32;;;;;;;23.52;14.38;;;;;;;-0.53;68.08;93592.44;5047615;28;20463;-44
2022/03/02 05:05:58;;;;;;;17.95;10.20;;;;;;;-0.43;67.34;93596.50;5047618;28;20459;-42
2022/03/02 05:08:23;;;;;;;17.23;12.38;;;;;;;-0.57;67.59;93569.47;5047977;28;20021;-42
2022/03/02 05:10:48;;;;;;;17.27;11.73;;;;;;;-0.54;67.86;93593.66;5047549;28;20135;-42
2022/03/02 05:13:14;;;;;;;17.63;11.13;;;;;;;-0.48;68.07;93594.47;5047686;28;20042;-42
2022/03/02 05:15:39;;;;;;;18.50;11.05;;;;;;;-0.31;67.81;93592.72;5047514;28;20021;-42
2022/03/02 05:18:05;;;;;;;18.27;10.80;;;;;;;-0.33;67.69;93587.03;5084184;27;20076;-43
2022/03/02 05:20:30;;;;;;;20.67;12.50;;;;;;;-0.32;66.86;93583.06;5152138;27;20026;-42
2022/03/02 05:22:56;;;;;;;19.30;11.60;;;;;;;-0.39;67.31;93591.63;5152377;27;20022;-42
2022/03/02 05:25:24;;;;;;;18.33;10.98;;;;;;;-0.60;66.53;93594.78;5151966;27;20424;-42
2022/03/02 05:27:50;;;;;;;29.95;15.85;;;;;;;-0.56;67.06;93590.66;5151875;27;20077;-42
2022/03/02 05:30:16;;;;;;;29.65;16.73;;;;;;;-0.55;67.32;93594.13;5151949;27;20518;-42
2022/03/02 05:32:42;;;;;;;20.20;11.98;;;;;;;-0.70;68.13;93601.56;5152164;27;20023;-43
2022/03/02 05:35:08;;;;;;;18.70;11.52;;;;;;;-0.65;66.55;93590.06;5152061;27;20577;-42
2022/03/02 05:37:34;;;;;;;22.92;12.77;;;;;;;-0.79;66.98;93597.78;5152172;27;20047;-42
2022/03/02 05:40:02;;;;;;;17.10;10.30;;;;;;;-0.95;67.15;93598.28;5139269;27;20034;-42
2022/03/02 05:42:28;;;;;;;18.90;10.75;;;;;;;-1.33;68.49;93594.97;5047369;28;20031;-42
2022/03/02 05:44:53;;;;;;;20.90;9.90;;;;;;;-1.51;68.50;93595.91;5047015;28;20409;-42
2022/03/02 05:47:19;;;;;;;17.02;9.88;;;;;;;-1.61;69.53;93595.28;5046978;28;20032;-42
2022/03/02 05:49:44;;;;;;;20.55;10.70;;;;;;;-1.67;69.38;93591.00;5046872;28;20033;-42
2022/03/02 05:52:09;;;;;;;15.95;10.38;;;;;;;-1.72;69.33;93595.09;5049766;28;20021;-43
2022/03/02 05:54:35;;;;;;;15.25;10.15;;;;;;;-1.63;68.91;93595.00;5050734;28;20479;-42
2022/03/02 05:57:00;;;;;;;15.25;9.30;;;;;;;-1.64;68.40;93593.50;5050746;28;20017;-42
2022/03/02 05:59:26;;;;;;;18.23;9.02;;;;;;;-1.61;68.20;93592.59;5050753;28;20025;-42
2022/03/02 06:01:51;;;;;;;14.63;8.75;;;;;;;-1.63;68.15;93589.59;5050385;28;20028;-42
2022/03/02 06:04:17;;;;;;;14.38;7.32;;;;;;;-1.88;68.46;93592.09;5050359;28;20057;-43
2022/03/02 06:06:42;;;;;;;12.98;9.18;;;;;;;-1.92;69.03;93576.03;5050623;28;20025;-42
2022/03/02 06:09:09;;;;;;;15.40;8.07;;;;;;;-1.79;68.40;93592.75;5050165;28;20025;-43
2022/03/02 06:11:39;;;;;;;12.70;7.45;;;;;;;-1.86;67.73;93597.78;5050667;28;20025;-42
2022/03/02 06:14:05;;;;;;;10.02;6.70;;;;;;;-1.77;67.22;93598.44;5050084;28;20108;-42
2022/03/02 06:16:31;;;;;;;11.82;7.03;;;;;;;-2.05;67.57;93572.84;5050535;28;20025;-43
2022/03/02 06:18:57;;;;;;;13.05;8.07;;;;;;;-1.95;68.00;93592.47;5050015;28;20069;-42
2022/03/02 06:21:27;;;;;;;15.40;8.88;;;;;;;-1.82;67.81;93601.78;5050388;28;20029;-42
2022/03/02 06:23:53;;;;;;;11.45;7.82;;;;;;;-1.91;67.74;93607.31;5050456;28;20021;-42
2022/03/02 06:26:19;;;;;;;17.85;8.30;;;;;;;-1.97;68.12;93589.47;5049745;28;20029;-43
2022/03/02 06:28:45;;;;;;;9.00;6.75;;;;;;;-1.93;67.88;93603.56;5050060;28;20029;-42
2022/03/02 06:31:13;;;;;;;14.15;8.05;;;;;;;-1.97;68.03;93603.00;5050209;28;20024;-42
2022/03/02 06:33:38;;;;;;;12.98;7.28;;;;;;;-1.76;67.04;93602.66;5049807;28;20021;-42
2022/03/02 06:36:04;;;;;;;9.60;6.93;;;;;;;-1.85;67.27;93600.03;5050203;28;20085;-42
2022/03/02 06:38:30;;;;;;;8.90;6.60;;;;;;;-1.76;67.50;93607.31;5050173;28;20101;-42
2022/03/02 06:40:55;;;;;;;12.85;8.60;;;;;;;-1.63;66.63;93611.25;5049859;28;20478;-43
2022/03/02 06:43:23;;;;;;;15.13;8.75;;;;;;;-1.48;67.25;93613.94;5049784;28;20025;-42
2022/03/02 06:45:58;;;;;;;10.70;8.13;;;;;;;-1.38;67.46;93609.91;5049680;28;20033;-43
2022/03/02 06:48:34;;;;;;;12.95;7.82;;;;;;;-1.20;66.69;93615.16;5049782;28;20029;-42
2022/03/02 06:51:01;;;;;;;13.75;8.85;;;;;;;-1.33;66.11;93592.28;5049927;28;20078;-42
2022/03/02 06:53:32;;;;;;;10.25;7.35;;;;;;;-1.22;66.10;93611.41;5049852;28;20105;-43
2022/03/02 06:56:00;;;;;;;11.52;7.97;;;;;;;-1.08;65.52;93616.03;5049812;28;20100;-43
2022/03/02 06:58:29;;;;;;;16.77;10.52;;;;;;;-0.96;65.36;93615.00;5049849;28;20025;-42
2022/03/02 07:00:56;;;;;;;10.93;7.45;;;;;;;-1.03;63.54;93612.69;5049519;28;20561;-42
2022/03/02 07:03:26;;;;;;;12.18;7.68;;;;;;;-0.94;63.77;93615.28;5048685;28;20029;-42
2022/03/02 07:05:53;;;;;;;13.30;8.25;;;;;;;-0.84;64.07;93622.06;5031781;28;20041;-42
2022/03/02 07:08:21;;;;;;;11.57;7.70;;;;;;;-0.87;64.28;93610.22;5027487;28;20533;-43
2022/03/02 07:10:50;;;;;;;15.65;8.68;;;;;;;-1.07;65.64;93612.13;5027442;28;20021;-42
2022/03/02 07:13:16;;;;;;;10.73;7.20;;;;;;;-1.20;64.52;93607.03;5026085;28;20025;-42
2022/03/02 07:15:42;;;;;;;11.13;8.07;;;;;;;-1.10;63.87;93604.94;5025771;28;20025;-42
2022/03/02 07:18:07;;;;;;;14.50;8.18;;;;;;;-1.13;64.96;93606.63;5073124;27;20022;-42
2022/03/02 07:20:39;;;;;;;12.73;7.57;;;;;;;-1.31;64.80;93562.75;5059227;27;20025;-42
2022/03/02 07:23:07;;;;;;;14.35;9.23;;;;;;;-1.10;65.24;93604.94;5029097;28;20057;-43
2022/03/02 07:25:41;;;;;;;12.80;8.18;;;;;;;-0.96;63.84;93598.75;5029578;28;20097;-42
2022/03/02 07:28:09;;;;;;;12.38;7.00;;;;;;;-0.94;63.74;93601.72;5028656;28;20076;-42
2022/03/02 07:30:35;;;;;;;11.40;7.15;;;;;;;-0.82;64.31;93604.13;5028570;28;20035;-42
2022/03/02 07:33:02;;;;;;;12.40;7.97;;;;;;;-0.60;63.03;93608.34;5028815;28;20021;-43
2022/03/02 07:35:31;;;;;;;11.63;7.57;;;;;;;-0.63;62.20;93599.22;5028638;28;20187;-42
2022/03/02 07:37:57;;;;;;;11.93;8.05;;;;;;;-0.52;63.04;93599.34;5028304;28;20684;-43
2022/03/02 07:40:23;;;;;;;11.70;7.68;;;;;;;-0.52;64.32;93595.91;5045705;27;20033;-42
2022/03/02 07:42:49;;;;;;;21.40;11.75;;;;;;;-0.36;64.01;93590.69;5047670;28;20486;-42
2022/03/02 07:45:15;;;;;;;19.33;11.38;;;;;;;-0.36;63.62;93577.13;5047271;28;20029;-42
2022/03/02 07:47:40;;;;;;;16.73;10.05;;;;;;;-0.31;62.24;93586.53;5047175;28;20028;-42
2022/03/02 07:50:07;;;;;;;12.00;8.10;;;;;;;-0.21;63.30;93575.06;5047625;28;20104;-43
2022/03/02 07:52:36;;;;;;;15.57;8.48;;;;;;;-0.17;62.41;93580.28;5047129;28;20029;-42
2022/03/02 07:55:09;;;;;;;13.60;8.38;;;;;;;-0.14;63.68;93582.81;5046887;28;20021;-42
2022/03/02 07:57:35;;;;;;;12.48;7.57;;;;;;;-0.03;61.18;93585.66;5047448;28;20025;-42
2022/03/02 08:00:01;;;;;;;13.38;7.68;;;;;;;-0.07;61.45;93587.81;5048564;28;20406;-43
2022/03/02 08:02:30;;;;;;;16.38;9.15;;;;;;;0.01;62.06;93588.13;5048494;28;20028;-42
2022/03/02 08:04:55;;;;;;;;;;;;;;;-0.02;62.15;93592.56;5049352;28;20081;-42
2022/03/02 08:07:21;;;;;;;23.80;9.55;;;;;;;-0.07;63.45;93582.41;5047537;28;20374;-43
2022/03/02 08:09:47;;;;;;;15.48;9.60;;;;;;;-0.11;61.34;93568.25;5048420;28;20108;-43
2022/03/02 08:12:13;;;;;;;17.13;9.07;;;;;;;-0.01;61.13;93583.19;5048460;28;20150;-42
2022/03/02 08:14:40;;;;;;;17.33;10.18;;;;;;;0.02;63.17;93586.94;5047274;28;20123;-42
2022/03/02 08:17:05;;;;;;;13.32;8.85;;;;;;;0.11;63.63;93588.75;5048325;28;20023;-42
2022/03/02 08:19:31;;;;;;;16.48;10.13;;;;;;;0.20;62.52;93575.00;5046989;28;20025;-43
2022/03/02 08:22:06;;;;;;;14.98;9.38;;;;;;;0.20;63.51;93575.75;5048483;28;20104;-42
2022/03/02 08:24:32;;;;;;;16.48;10.00;;;;;;;0.20;64.27;93583.13;5048252;28;20025;-42
2022/03/02 08:27:03;;;;;;;15.07;9.13;;;;;;;0.38;63.87;93574.69;5047936;28;20041;-42
2022/03/02 08:29:31;;;;;;;20.42;12.07;;;;;;;0.58;63.44;93580.06;5048464;28;20024;-42
2022/03/02 08:32:00;;;;;;;21.42;12.38;;;;;;;0.63;63.17;93571.19;5048399;28;20101;-42
2022/03/02 08:34:27;;;;;;;23.05;14.23;;;;;;;0.89;62.74;93566.44;5048018;28;20494;-42
2022/03/02 08:36:54;;;;;;;14.93;10.15;;;;;;;0.93;60.55;93567.00;5048158;28;20033;-43
2022/03/02 08:39:19;;;;;;;29.58;17.13;;;;;;;1.08;61.93;93561.41;5048282;28;20020;-43
2022/03/02 08:41:45;;;;;;;31.13;15.98;;;;;;;1.22;62.15;93569.41;5047587;28;20663;-43
2022/03/02 08:44:12;;;;;;;14.38;10.25;;;;;;;1.31;61.06;93552.13;5048221;28;20017;-42
2022/03/02 08:46:38;;;;;;;13.38;7.88;;;;;;;1.25;61.23;93537.78;5047927;28;20486;-43
2022/03/02 08:49:05;;;;;;;14.18;8.57;;;;;;;1.41;61.41;93553.41;5047909;28;20387;-42
2022/03/02 08:51:31;;;;;;;12.77;8.63;;;;;;;1.45;61.92;93551.25;5047765;28;20025;-42
2022/03/02 08:53:59;;;;;;;14.23;10.82;;;;;;;1.72;61.63;93547.13;5047522;28;20024;-42
2022/03/02 08:56:25;;;;;;;17.80;10.52;;;;;;;2.12;59.57;93546.78;5048043;28;20413;-43
2022/03/02 08:58:52;;;;;;;12.98;8.95;;;;;;;2.11;59.13;93548.75;5047698;28;20081;-42
2022/03/02 09:01:18;;;;;;;13.07;8.95;;;;;;;2.29;59.29;93531.19;5047857;28;20099;-42
2022/03/02 09:03:48;;;;;;;14.32;9.50;;;;;;;2.66;57.53;93531.72;5047935;28;20104;-42
2022/03/02 09:06:15;;;;;;;27.65;16.13;;;;;;;3.28;57.97;93532.38;5047613;28;20426;-43
2022/03/02 09:08:41;;;;;;;15.70;10.20;;;;;;;3.66;55.13;93520.63;5047537;28;20031;-42
2022/03/02 09:11:07;;;;;;;9.60;7.03;;;;;;;4.09;52.91;93520.94;5047513;28;20017;-43
2022/03/02 09:13:33;;;;;;;11.77;8.57;;;;;;;4.35;52.39;93524.00;5047781;28;20029;-42
2022/03/02 09:15:58;;;;;;;11.60;8.88;;;;;;;4.04;53.00;93516.97;5046094;28;20029;-42
2022/03/02 09:18:24;;;;;;;10.02;8.38;;;;;;;4.50;53.93;93511.47;5047378;28;20109;-42
2022/03/02 09:21:01;;;;;;;12.57;9.25;;;;;;;5.04;53.39;93508.81;5047285;28;20029;-42
2022/03/02 09:23:31;;;;;;;11.32;8.32;;;;;;;5.26;50.58;93505.84;5046900;28;20021;-42
2022/03/02 09:26:04;;;;;;;16.73;9.05;;;;;;;5.44;50.78;93489.97;5046452;28;20409;-42
2022/03/02 09:28:33;;;;;;;14.40;10.10;;;;;;;5.85;49.59;93496.00;5047148;28;20048;-43
2022/03/02 09:31:02;;;;;;;16.83;11.25;;;;;;;6.13;47.90;93498.41;5047536;28;20417;-42
2022/03/02 09:33:28;;;;;;;15.45;10.43;;;;;;;6.60;48.28;93500.22;5046242;28;20032;-42
2022/03/02 09:35:54;;;;;;;12.63;9.77;;;;;;;7.08;47.60;93496.44;5047323;28;20021;-42
2022/03/02 09:38:20;;;;;;;14.43;8.63;;;;;;;7.56;46.04;93487.84;5046257;28;20077;-42
2022/03/02 09:40:49;;;;;;;11.68;8.88;;;;;;;7.90;45.34;93493.44;5046876;28;20435;-42
2022/03/02 09:43:19;;;;;;;12.57;8.82;;;;;;;7.43;45.81;93474.09;5047148;28;20043;-42
2022/03/02 09:45:49;;;;;;;34.70;9.85;;;;;;;7.48;44.86;93487.00;5047112;28;20039;-42
2022/03/02 09:48:24;;;;;;;10.88;8.23;;;;;;;7.94;44.31;93493.84;5047760;28;20029;-42
2022/03/02 09:50:52;;;;;;;9.07;6.90;;;;;;;8.04;43.39;93491.41;5045831;28;20547;-42
2022/03/02 09:53:20;;;;;;;11.98;8.48;;;;;;;8.02;41.98;93489.19;5047075;28;20070;-42
2022/03/02 09:55:45;;;;;;;10.93;7.53;;;;;;;7.58;44.26;93457.81;5045838;28;20036;-42
2022/03/02 09:58:13;;;;;;;10.48;8.02;;;;;;;7.43;44.95;93481.59;5045709;28;20021;-43
2022/03/02 10:00:38;;;;;;;8.95;6.25;;;;;;;7.59;44.81;93475.81;5046864;28;20692;-42
2022/03/02 10:03:10;;;;;;;8.55;6.18;;;;;;;7.44;44.37;93474.84;5045659;28;20025;-42
2022/03/02 10:05:35;;;;;;;13.25;6.30;;;;;;;7.36;44.38;93466.47;5047178;28;20040;-42
2022/03/02 10:08:07;;;;;;;10.65;8.18;;;;;;;7.36;45.17;93465.75;5045850;28;20083;-42
2022/03/02 10:10:36;;;;;;;13.30;8.18;;;;;;;7.54;44.24;93471.13;5047100;28;20036;-42
2022/03/02 10:13:05;;;;;;;10.82;7.03;;;;;;;7.46;44.09;93466.81;5046956;28;20108;-42
2022/03/02 10:15:32;;;;;;;11.68;7.88;;;;;;;7.40;44.31;93461.44;5046577;28;20567;-41
2022/03/02 10:17:59;;;;;;;9.45;7.53;;;;;;;7.51;44.07;93463.94;5046850;28;20029;-42
2022/03/02 10:20:30;;;;;;;17.05;8.02;;;;;;;7.46;44.55;93459.31;5046932;28;20040;-42
2022/03/02 10:23:22;;;;;;;10.90;7.40;;;;;;;7.85;44.76;93455.06;5046992;28;20035;-42
2022/03/02 10:26:02;;;;;;;13.23;8.50;;;;;;;7.86;43.95;93454.50;5046665;28;20036;-42
2022/03/02 10:28:42;;;;;;;11.23;7.68;;;;;;;7.53;44.62;93449.69;5046435;28;20491;-42
2022/03/02 10:31:25;;;;;;;11.15;8.38;;;;;;;7.49;44.98;93439.00;5046785;28;20072;-42
2022/03/02 10:34:01;;;;;;;12.75;8.63;;;;;;;7.37;45.85;93445.25;5046402;28;20399;-42
2022/03/02 10:36:29;;;;;;;13.48;9.52;;;;;;;7.16;45.97;93419.69;5046505;28;20025;-42
2022/03/02 10:38:58;;;;;;;27.60;16.25;;;;;;;7.19;45.80;93437.88;5048841;28;20036;-42
2022/03/02 10:41:25;;;;;;;9.13;7.23;;;;;;;7.07;46.56;93429.09;5049874;27;20056;-42
2022/03/02 10:44:00;;;;;;;10.40;8.13;;;;;;;6.77;48.13;93423.13;5049735;28;20427;-42
2022/03/02 10:46:26;;;;;;;16.20;11.32;;;;;;;6.59;48.64;93418.44;5048577;28;20029;-42
2022/03/02 10:49:10;;;;;;;15.20;11.43;;;;;;;6.26;50.25;93414.22;5050015;28;20035;-42
2022/03/02 10:51:36;;;;;;;11.93;8.93;;;;;;;5.92;51.24;93402.25;5049764;28;20031;-42
2022/03/02 10:54:05;;;;;;;17.02;11.05;;;;;;;5.99;52.01;93410.63;5049549;28;20029;-42
2022/03/02 10:56:38;;;;;;;11.98;9.60;;;;;;;5.65;53.58;93398.59;5049710;28;20029;-42
2022/03/02 10:59:06;;;;;;;12.75;9.55;;;;;;;6.33;52.43;93391.66;5049969;28;20077;-42
2022/03/02 11:01:32;;;;;;;11.55;9.50;;;;;;;7.03;50.25;93389.47;5049838;28;20060;-42
2022/03/02 11:03:58;;;;;;;10.18;8.25;;;;;;;7.94;50.69;93385.91;5048535;28;20044;-42
2022/03/02 11:06:24;;;;;;;13.30;10.15;;;;;;;8.61;46.78;93377.59;5048365;28;20033;-42
2022/03/02 11:08:54;;;;;;;11.05;7.90;;;;;;;8.77;46.16;93362.69;5049401;28;20029;-42
2022/03/02 11:11:19;;;;;;;11.07;8.07;;;;;;;8.94;46.28;93362.28;5049354;28;20025;-42
2022/03/02 11:13:45;;;;;;;11.52;7.88;;;;;;;8.99;42.94;93356.59;5048377;28;20116;-42
2022/03/02 11:16:19;;;;;;;12.45;8.55;;;;;;;9.89;42.70;93347.31;5049546;28;20474;-42
2022/03/02 11:18:48;;;;;;;11.52;7.95;;;;;;;10.33;41.30;93345.25;5114945;27;20023;-42
2022/03/02 11:21:14;;;;;;;;;;;;;;;10.79;39.81;93338.47;5154829;27;20098;-42
2022/03/02 11:23:45;;;;;;;9.88;7.28;;;;;;;11.50;38.11;93314.41;5154640;27;19938;-42